sensor_id;sensor_type;location;lat;lon;timestamp;temperature;humidity
73750;SHT30;62058;48.406;-4.514;2022-09-09T00:00:18;16.74;91.76
73750;SHT30;62058;48.406;-4.514;2022-09-09T00:07:55;16.75;92.26
73750;SHT30;62058;48.406;-4.514;2022-09-09T00:10:32;16.81;92.59
73750;SHT30;62058;48.406;-4.514;2022-09-09T00:16:40;16.81;92.20
73750;SHT30;62058;48.406;-4.514;2022-09-09T00:19:22;16.74;91.17
73750;SHT30;62058;48.406;-4.514;2022-09-09T00:24:48;16.68;91.27
73750;SHT30;62058;48.406;-4.514;2022-09-09T00:27:45;16.67;92.15
73750;SHT30;62058;48.406;-4.514;2022-09-09T00:30:23;16.65;91.84
73750;SHT30;62058;48.406;-4.514;2022-09-09T00:32:53;16.58;90.59
73750;SHT30;62058;48.406;-4.514;2022-09-09T00:35:32;16.61;92.09
73750;SHT30;62058;48.406;-4.514;2022-09-09T00:38:27;16.61;92.00
73750;SHT30;62058;48.406;-4.514;2022-09-09T00:44:00;16.68;92.26
73750;SHT30;62058;48.406;-4.514;2022-09-09T00:46:48;16.69;92.10
73750;SHT30;62058;48.406;-4.514;2022-09-09T00:49:42;16.78;92.39
73750;SHT30;62058;48.406;-4.514;2022-09-09T00:55:42;16.81;92.04
73750;SHT30;62058;48.406;-4.514;2022-09-09T00:58:10;16.84;92.04
73750;SHT30;62058;48.406;-4.514;2022-09-09T01:00:43;16.84;91.56
73750;SHT30;62058;48.406;-4.514;2022-09-09T01:03:20;16.81;91.51
73750;SHT30;62058;48.406;-4.514;2022-09-09T01:06:14;16.79;90.50
73750;SHT30;62058;48.406;-4.514;2022-09-09T01:14:13;16.81;90.67
73750;SHT30;62058;48.406;-4.514;2022-09-09T01:16:40;16.81;90.97
73750;SHT30;62058;48.406;-4.514;2022-09-09T01:19:15;16.79;91.41
73750;SHT30;62058;48.406;-4.514;2022-09-09T01:21:56;16.78;89.13
73750;SHT30;62058;48.406;-4.514;2022-09-09T01:24:38;16.81;90.96
73750;SHT30;62058;48.406;-4.514;2022-09-09T01:27:07;16.78;90.79
73750;SHT30;62058;48.406;-4.514;2022-09-09T01:29:34;16.72;89.11
73750;SHT30;62058;48.406;-4.514;2022-09-09T01:32:42;16.72;90.14
73750;SHT30;62058;48.406;-4.514;2022-09-09T01:37:52;16.67;90.01
73750;SHT30;62058;48.406;-4.514;2022-09-09T01:40:17;16.69;89.88
73750;SHT30;62058;48.406;-4.514;2022-09-09T01:42:43;16.68;89.85
73750;SHT30;62058;48.406;-4.514;2022-09-09T01:45:09;16.71;88.73
73750;SHT30;62058;48.406;-4.514;2022-09-09T01:47:35;16.72;89.47
73750;SHT30;62058;48.406;-4.514;2022-09-09T01:50:01;16.69;89.58
73750;SHT30;62058;48.406;-4.514;2022-09-09T01:52:28;16.71;89.95
73750;SHT30;62058;48.406;-4.514;2022-09-09T01:54:54;16.75;89.97
73750;SHT30;62058;48.406;-4.514;2022-09-09T02:02:36;16.72;89.59
73750;SHT30;62058;48.406;-4.514;2022-09-09T02:05:17;16.74;89.73
73750;SHT30;62058;48.406;-4.514;2022-09-09T02:07:51;16.71;89.99
73750;SHT30;62058;48.406;-4.514;2022-09-09T02:10:29;16.67;89.44
73750;SHT30;62058;48.406;-4.514;2022-09-09T02:13:10;16.67;90.35
73750;SHT30;62058;48.406;-4.514;2022-09-09T02:15:56;16.65;89.01
73750;SHT30;62058;48.406;-4.514;2022-09-09T02:18:27;16.67;90.17
73750;SHT30;62058;48.406;-4.514;2022-09-09T02:20:56;16.68;89.41
73750;SHT30;62058;48.406;-4.514;2022-09-09T02:23:23;16.62;89.37
73750;SHT30;62058;48.406;-4.514;2022-09-09T02:25:51;16.64;90.14
73750;SHT30;62058;48.406;-4.514;2022-09-09T02:28:20;16.62;88.98
73750;SHT30;62058;48.406;-4.514;2022-09-09T02:30:48;16.61;89.14
73750;SHT30;62058;48.406;-4.514;2022-09-09T02:33:22;16.62;88.30
73750;SHT30;62058;48.406;-4.514;2022-09-09T02:35:51;16.67;90.00
73750;SHT30;62058;48.406;-4.514;2022-09-09T02:38:20;16.67;89.52
73750;SHT30;62058;48.406;-4.514;2022-09-09T02:40:47;16.60;89.69
73750;SHT30;62058;48.406;-4.514;2022-09-09T02:43:14;16.57;89.13
73750;SHT30;62058;48.406;-4.514;2022-09-09T02:45:52;16.57;89.31
73750;SHT30;62058;48.406;-4.514;2022-09-09T02:48:32;16.58;88.85
73750;SHT30;62058;48.406;-4.514;2022-09-09T02:51:13;16.57;89.43
73750;SHT30;62058;48.406;-4.514;2022-09-09T02:56:18;16.60;89.45
73750;SHT30;62058;48.406;-4.514;2022-09-09T02:58:45;16.64;89.43
73750;SHT30;62058;48.406;-4.514;2022-09-09T03:01:11;16.65;89.48
73750;SHT30;62058;48.406;-4.514;2022-09-09T03:03:37;16.69;88.87
73750;SHT30;62058;48.406;-4.514;2022-09-09T03:06:03;16.72;88.04
73750;SHT30;62058;48.406;-4.514;2022-09-09T03:08:28;16.76;89.37
73750;SHT30;62058;48.406;-4.514;2022-09-09T03:10:54;16.78;88.56
73750;SHT30;62058;48.406;-4.514;2022-09-09T03:13:20;16.81;88.34
73750;SHT30;62058;48.406;-4.514;2022-09-09T03:15:45;16.75;88.35
73750;SHT30;62058;48.406;-4.514;2022-09-09T03:18:13;16.78;87.95
73750;SHT30;62058;48.406;-4.514;2022-09-09T03:20:38;16.74;87.14
73750;SHT30;62058;48.406;-4.514;2022-09-09T03:23:04;16.78;87.83
73750;SHT30;62058;48.406;-4.514;2022-09-09T03:25:29;16.79;86.79
73750;SHT30;62058;48.406;-4.514;2022-09-09T03:27:55;16.76;87.01
73750;SHT30;62058;48.406;-4.514;2022-09-09T03:30:22;16.74;86.57
73750;SHT30;62058;48.406;-4.514;2022-09-09T03:32:48;16.74;87.66
73750;SHT30;62058;48.406;-4.514;2022-09-09T03:35:13;16.74;86.74
73750;SHT30;62058;48.406;-4.514;2022-09-09T03:37:39;16.78;86.59
73750;SHT30;62058;48.406;-4.514;2022-09-09T03:40:04;16.82;86.75
73750;SHT30;62058;48.406;-4.514;2022-09-09T03:42:31;16.84;87.12
73750;SHT30;62058;48.406;-4.514;2022-09-09T03:44:56;16.81;86.68
73750;SHT30;62058;48.406;-4.514;2022-09-09T03:47:23;16.78;86.77
73750;SHT30;62058;48.406;-4.514;2022-09-09T03:49:48;16.75;87.27
73750;SHT30;62058;48.406;-4.514;2022-09-09T03:52:15;16.71;87.28
73750;SHT30;62058;48.406;-4.514;2022-09-09T03:54:41;16.74;86.16
73750;SHT30;62058;48.406;-4.514;2022-09-09T03:57:08;16.71;86.28
73750;SHT30;62058;48.406;-4.514;2022-09-09T03:59:34;16.68;86.21
73750;SHT30;62058;48.406;-4.514;2022-09-09T04:02:00;16.71;87.03
73750;SHT30;62058;48.406;-4.514;2022-09-09T04:04:26;16.71;87.38
73750;SHT30;62058;48.406;-4.514;2022-09-09T04:06:53;16.71;87.36
73750;SHT30;62058;48.406;-4.514;2022-09-09T04:09:18;16.74;87.36
73750;SHT30;62058;48.406;-4.514;2022-09-09T04:11:43;16.78;86.87
73750;SHT30;62058;48.406;-4.514;2022-09-09T04:14:09;16.75;87.25
73750;SHT30;62058;48.406;-4.514;2022-09-09T04:16:34;16.74;86.97
73750;SHT30;62058;48.406;-4.514;2022-09-09T04:19:03;16.72;86.59
73750;SHT30;62058;48.406;-4.514;2022-09-09T04:21:30;16.72;86.83
73750;SHT30;62058;48.406;-4.514;2022-09-09T04:23:55;16.75;87.00
73750;SHT30;62058;48.406;-4.514;2022-09-09T04:26:21;16.74;87.22
73750;SHT30;62058;48.406;-4.514;2022-09-09T04:28:46;16.71;86.18
73750;SHT30;62058;48.406;-4.514;2022-09-09T04:31:17;16.65;86.04
73750;SHT30;62058;48.406;-4.514;2022-09-09T04:33:46;16.67;86.97
73750;SHT30;62058;48.406;-4.514;2022-09-09T04:36:12;16.71;87.16
73750;SHT30;62058;48.406;-4.514;2022-09-09T04:38:38;16.74;87.32
73750;SHT30;62058;48.406;-4.514;2022-09-09T04:41:04;16.72;86.85
73750;SHT30;62058;48.406;-4.514;2022-09-09T04:43:29;16.75;87.40
73750;SHT30;62058;48.406;-4.514;2022-09-09T04:45:56;16.74;86.92
73750;SHT30;62058;48.406;-4.514;2022-09-09T04:48:22;16.74;87.02
73750;SHT30;62058;48.406;-4.514;2022-09-09T04:50:58;16.71;86.31
73750;SHT30;62058;48.406;-4.514;2022-09-09T04:53:23;16.68;87.39
73750;SHT30;62058;48.406;-4.514;2022-09-09T04:55:50;16.67;87.39
73750;SHT30;62058;48.406;-4.514;2022-09-09T04:58:16;16.67;86.99
73750;SHT30;62058;48.406;-4.514;2022-09-09T05:00:41;16.68;87.84
73750;SHT30;62058;48.406;-4.514;2022-09-09T05:03:07;16.67;87.22
73750;SHT30;62058;48.406;-4.514;2022-09-09T05:05:34;16.67;86.73
73750;SHT30;62058;48.406;-4.514;2022-09-09T05:08:03;16.68;87.36
73750;SHT30;62058;48.406;-4.514;2022-09-09T05:10:29;16.65;87.64
73750;SHT30;62058;48.406;-4.514;2022-09-09T05:12:55;16.71;87.41
73750;SHT30;62058;48.406;-4.514;2022-09-09T05:15:21;16.74;87.05
73750;SHT30;62058;48.406;-4.514;2022-09-09T05:17:46;16.74;87.64
73750;SHT30;62058;48.406;-4.514;2022-09-09T05:20:12;16.78;87.55
73750;SHT30;62058;48.406;-4.514;2022-09-09T05:22:37;16.79;87.15
73750;SHT30;62058;48.406;-4.514;2022-09-09T05:25:04;16.81;87.21
73750;SHT30;62058;48.406;-4.514;2022-09-09T05:27:29;16.85;87.54
73750;SHT30;62058;48.406;-4.514;2022-09-09T05:29:56;16.91;86.83
73750;SHT30;62058;48.406;-4.514;2022-09-09T05:32:22;16.96;87.09
73750;SHT30;62058;48.406;-4.514;2022-09-09T05:34:48;16.98;87.19
73750;SHT30;62058;48.406;-4.514;2022-09-09T05:37:13;16.99;87.48
73750;SHT30;62058;48.406;-4.514;2022-09-09T05:39:39;16.98;86.44
73750;SHT30;62058;48.406;-4.514;2022-09-09T05:42:04;17.05;86.36
73750;SHT30;62058;48.406;-4.514;2022-09-09T05:44:30;17.05;86.25
73750;SHT30;62058;48.406;-4.514;2022-09-09T05:46:56;17.12;86.84
73750;SHT30;62058;48.406;-4.514;2022-09-09T05:49:23;17.13;86.93
73750;SHT30;62058;48.406;-4.514;2022-09-09T05:51:48;17.15;87.34
73750;SHT30;62058;48.406;-4.514;2022-09-09T05:54:15;17.16;87.15
73750;SHT30;62058;48.406;-4.514;2022-09-09T05:56:41;17.19;86.82
73750;SHT30;62058;48.406;-4.514;2022-09-09T05:59:07;17.22;86.27
73750;SHT30;62058;48.406;-4.514;2022-09-09T06:01:35;17.26;86.12
73750;SHT30;62058;48.406;-4.514;2022-09-09T06:04:01;17.26;86.61
73750;SHT30;62058;48.406;-4.514;2022-09-09T06:06:31;17.25;87.91
73750;SHT30;62058;48.406;-4.514;2022-09-09T06:08:57;17.20;87.98
73750;SHT30;62058;48.406;-4.514;2022-09-09T06:11:28;17.16;88.06
73750;SHT30;62058;48.406;-4.514;2022-09-09T06:13:56;17.12;87.57
73750;SHT30;62058;48.406;-4.514;2022-09-09T06:16:24;17.11;87.85
73750;SHT30;62058;48.406;-4.514;2022-09-09T06:18:50;17.06;88.26
73750;SHT30;62058;48.406;-4.514;2022-09-09T06:21:18;17.05;87.97
73750;SHT30;62058;48.406;-4.514;2022-09-09T06:23:44;16.98;87.42
73750;SHT30;62058;48.406;-4.514;2022-09-09T06:26:14;16.91;87.69
73750;SHT30;62058;48.406;-4.514;2022-09-09T06:28:42;16.94;88.24
73750;SHT30;62058;48.406;-4.514;2022-09-09T06:31:11;16.91;88.09
73750;SHT30;62058;48.406;-4.514;2022-09-09T06:33:39;16.91;87.82
73750;SHT30;62058;48.406;-4.514;2022-09-09T06:36:10;16.98;87.80
73750;SHT30;62058;48.406;-4.514;2022-09-09T06:38:36;17.06;87.14
73750;SHT30;62058;48.406;-4.514;2022-09-09T06:41:02;17.18;87.36
73750;SHT30;62058;48.406;-4.514;2022-09-09T06:43:28;17.26;87.13
73750;SHT30;62058;48.406;-4.514;2022-09-09T06:46:03;17.26;87.12
73750;SHT30;62058;48.406;-4.514;2022-09-09T06:48:29;17.26;87.15
73750;SHT30;62058;48.406;-4.514;2022-09-09T06:51:19;17.30;86.59
73750;SHT30;62058;48.406;-4.514;2022-09-09T06:53:47;17.37;85.93
73750;SHT30;62058;48.406;-4.514;2022-09-09T06:56:34;17.49;86.85
73750;SHT30;62058;48.406;-4.514;2022-09-09T06:59:02;17.53;85.58
73750;SHT30;62058;48.406;-4.514;2022-09-09T07:01:31;17.65;85.47
73750;SHT30;62058;48.406;-4.514;2022-09-09T07:03:58;17.69;86.38
73750;SHT30;62058;48.406;-4.514;2022-09-09T07:06:31;17.73;84.73
73750;SHT30;62058;48.406;-4.514;2022-09-09T07:08:59;17.80;85.04
73750;SHT30;62058;48.406;-4.514;2022-09-09T07:11:29;17.83;84.78
73750;SHT30;62058;48.406;-4.514;2022-09-09T07:13:57;17.84;84.22
73750;SHT30;62058;48.406;-4.514;2022-09-09T07:16:23;17.90;84.19
73750;SHT30;62058;48.406;-4.514;2022-09-09T07:18:49;17.91;84.87
73750;SHT30;62058;48.406;-4.514;2022-09-09T07:21:16;17.96;85.06
73750;SHT30;62058;48.406;-4.514;2022-09-09T07:23:42;17.96;84.13
73750;SHT30;62058;48.406;-4.514;2022-09-09T07:26:14;17.96;84.11
73750;SHT30;62058;48.406;-4.514;2022-09-09T07:28:41;17.91;83.79
73750;SHT30;62058;48.406;-4.514;2022-09-09T07:31:08;17.91;84.36
73750;SHT30;62058;48.406;-4.514;2022-09-09T07:33:39;17.97;84.49
73750;SHT30;62058;48.406;-4.514;2022-09-09T07:36:14;18.04;83.65
73750;SHT30;62058;48.406;-4.514;2022-09-09T07:38:41;18.12;84.03
73750;SHT30;62058;48.406;-4.514;2022-09-09T07:41:10;18.28;83.09
73750;SHT30;62058;48.406;-4.514;2022-09-09T07:43:39;18.41;82.21
73750;SHT30;62058;48.406;-4.514;2022-09-09T07:46:06;18.55;82.46
73750;SHT30;62058;48.406;-4.514;2022-09-09T07:48:32;18.80;82.63
73750;SHT30;62058;48.406;-4.514;2022-09-09T07:53:34;19.03;82.17
73750;SHT30;62058;48.406;-4.514;2022-09-09T07:56:10;19.10;81.52
73750;SHT30;62058;48.406;-4.514;2022-09-09T07:58:37;19.17;81.85
73750;SHT30;62058;48.406;-4.514;2022-09-09T08:01:11;19.17;80.27
73750;SHT30;62058;48.406;-4.514;2022-09-09T08:03:37;19.31;79.20
73750;SHT30;62058;48.406;-4.514;2022-09-09T08:06:05;19.35;80.05
73750;SHT30;62058;48.406;-4.514;2022-09-09T08:08:32;19.38;79.26
73750;SHT30;62058;48.406;-4.514;2022-09-09T08:11:06;19.37;78.09
73750;SHT30;62058;48.406;-4.514;2022-09-09T08:13:33;19.44;77.98
73750;SHT30;62058;48.406;-4.514;2022-09-09T08:16:17;19.46;79.10
73750;SHT30;62058;48.406;-4.514;2022-09-09T08:18:43;19.53;78.70
73750;SHT30;62058;48.406;-4.514;2022-09-09T08:23:37;19.51;78.28
73750;SHT30;62058;48.406;-4.514;2022-09-09T08:26:11;19.47;78.36
73750;SHT30;62058;48.406;-4.514;2022-09-09T08:28:38;19.41;78.68
73750;SHT30;62058;48.406;-4.514;2022-09-09T08:31:24;19.37;79.26
73750;SHT30;62058;48.406;-4.514;2022-09-09T08:33:49;19.41;78.98
73750;SHT30;62058;48.406;-4.514;2022-09-09T08:36:20;19.44;78.65
73750;SHT30;62058;48.406;-4.514;2022-09-09T08:38:50;19.53;78.88
73750;SHT30;62058;48.406;-4.514;2022-09-09T08:49:50;19.91;77.71
73750;SHT30;62058;48.406;-4.514;2022-09-09T08:52:28;20.09;76.83
73750;SHT30;62058;48.406;-4.514;2022-09-09T08:54:57;20.24;74.31
73750;SHT30;62058;48.406;-4.514;2022-09-09T08:57:26;20.33;74.53
73750;SHT30;62058;48.406;-4.514;2022-09-09T08:59:52;20.28;74.14
73750;SHT30;62058;48.406;-4.514;2022-09-09T09:02:28;20.19;75.09
73750;SHT30;62058;48.406;-4.514;2022-09-09T09:05:08;20.19;75.50
73750;SHT30;62058;48.406;-4.514;2022-09-09T09:12:56;20.26;75.45
73750;SHT30;62058;48.406;-4.514;2022-09-09T09:15:25;20.29;75.54
73750;SHT30;62058;48.406;-4.514;2022-09-09T09:17:50;20.08;75.81
73750;SHT30;62058;48.406;-4.514;2022-09-09T09:20:19;19.82;76.80
73750;SHT30;62058;48.406;-4.514;2022-09-09T09:22:51;19.67;76.27
73750;SHT30;62058;48.406;-4.514;2022-09-09T09:25:42;19.70;77.57
73750;SHT30;62058;48.406;-4.514;2022-09-09T09:28:20;19.79;78.25
73750;SHT30;62058;48.406;-4.514;2022-09-09T09:31:13;19.86;75.98
73750;SHT30;62058;48.406;-4.514;2022-09-09T09:36:13;20.01;76.26
73750;SHT30;62058;48.406;-4.514;2022-09-09T09:41:49;20.19;75.69
73750;SHT30;62058;48.406;-4.514;2022-09-09T09:44:30;20.38;75.43
73750;SHT30;62058;48.406;-4.514;2022-09-09T09:47:22;20.36;75.32
73750;SHT30;62058;48.406;-4.514;2022-09-09T09:49:57;20.50;74.44
73750;SHT30;62058;48.406;-4.514;2022-09-09T09:52:26;20.72;74.22
73750;SHT30;62058;48.406;-4.514;2022-09-09T09:54:54;20.90;71.76
73750;SHT30;62058;48.406;-4.514;2022-09-09T09:57:29;21.11;73.35
73750;SHT30;62058;48.406;-4.514;2022-09-09T10:00:16;21.17;70.52
73750;SHT30;62058;48.406;-4.514;2022-09-09T10:02:44;21.04;70.75
73750;SHT30;62058;48.406;-4.514;2022-09-09T10:07:44;20.86;73.96
73750;SHT30;62058;48.406;-4.514;2022-09-09T10:10:25;20.69;72.66
73750;SHT30;62058;48.406;-4.514;2022-09-09T10:16:22;20.70;73.83
73750;SHT30;62058;48.406;-4.514;2022-09-09T10:19:15;20.73;72.05
73750;SHT30;62058;48.406;-4.514;2022-09-09T10:30:21;21.23;70.63
73750;SHT30;62058;48.406;-4.514;2022-09-09T10:36:59;21.58;68.39
73750;SHT30;62058;48.406;-4.514;2022-09-09T10:39:32;21.77;66.84
73750;SHT30;62058;48.406;-4.514;2022-09-09T10:42:07;21.52;68.44
73750;SHT30;62058;48.406;-4.514;2022-09-09T10:44:56;20.25;86.19
73750;SHT30;62058;48.406;-4.514;2022-09-09T10:50:32;18.88;94.35
73750;SHT30;62058;48.406;-4.514;2022-09-09T10:53:19;18.65;94.78
73750;SHT30;62058;48.406;-4.514;2022-09-09T10:56:01;18.58;95.97
73750;SHT30;62058;48.406;-4.514;2022-09-09T10:58:40;18.58;94.98
73750;SHT30;62058;48.406;-4.514;2022-09-09T11:01:36;18.39;95.89
73750;SHT30;62058;48.406;-4.514;2022-09-09T11:04:15;18.34;95.28
73750;SHT30;62058;48.406;-4.514;2022-09-09T11:06:45;18.45;95.81
73750;SHT30;62058;48.406;-4.514;2022-09-09T11:09:18;18.37;93.72
73750;SHT30;62058;48.406;-4.514;2022-09-09T11:11:52;18.17;95.12
73750;SHT30;62058;48.406;-4.514;2022-09-09T11:14:28;18.11;96.29
73750;SHT30;62058;48.406;-4.514;2022-09-09T11:17:02;18.14;96.67
73750;SHT30;62058;48.406;-4.514;2022-09-09T11:19:39;18.14;96.19
73750;SHT30;62058;48.406;-4.514;2022-09-09T11:22:14;18.15;95.50
73750;SHT30;62058;48.406;-4.514;2022-09-09T11:24:45;18.17;96.72
73750;SHT30;62058;48.406;-4.514;2022-09-09T11:27:35;18.27;96.34
73750;SHT30;62058;48.406;-4.514;2022-09-09T11:35:57;18.68;97.46
73750;SHT30;62058;48.406;-4.514;2022-09-09T11:41:05;18.66;95.95
73750;SHT30;62058;48.406;-4.514;2022-09-09T11:43:51;18.66;96.11
73750;SHT30;62058;48.406;-4.514;2022-09-09T11:46:20;18.71;94.57
73750;SHT30;62058;48.406;-4.514;2022-09-09T11:48:58;18.69;95.42
73750;SHT30;62058;48.406;-4.514;2022-09-09T11:56:28;18.77;95.10
73750;SHT30;62058;48.406;-4.514;2022-09-09T11:59:50;18.92;96.14
73750;SHT30;62058;48.406;-4.514;2022-09-09T12:02:02;18.96;93.78
73750;SHT30;62058;48.406;-4.514;2022-09-09T12:04:31;19.03;95.57
73750;SHT30;62058;48.406;-4.514;2022-09-09T12:12:29;19.60;93.19
73750;SHT30;62058;48.406;-4.514;2022-09-09T12:17:28;20.02;90.82
73750;SHT30;62058;48.406;-4.514;2022-09-09T12:28:17;21.52;94.20
73750;SHT30;62058;48.406;-4.514;2022-09-09T12:33:19;21.93;91.56
73750;SHT30;62058;48.406;-4.514;2022-09-09T12:35:50;22.20;90.99
73750;SHT30;62058;48.406;-4.514;2022-09-09T12:38:36;22.37;87.57
73750;SHT30;62058;48.406;-4.514;2022-09-09T12:41:02;22.30;85.50
73750;SHT30;62058;48.406;-4.514;2022-09-09T12:43:28;22.23;86.79
73750;SHT30;62058;48.406;-4.514;2022-09-09T12:46:03;22.12;84.43
73750;SHT30;62058;48.406;-4.514;2022-09-09T12:48:41;21.99;86.42
73750;SHT30;62058;48.406;-4.514;2022-09-09T12:51:23;21.92;86.20
73750;SHT30;62058;48.406;-4.514;2022-09-09T12:53:50;21.92;84.61
73750;SHT30;62058;48.406;-4.514;2022-09-09T12:56:21;22.23;90.55
73750;SHT30;62058;48.406;-4.514;2022-09-09T12:58:49;22.46;82.12
73750;SHT30;62058;48.406;-4.514;2022-09-09T13:01:30;22.19;87.20
73750;SHT30;62058;48.406;-4.514;2022-09-09T13:03:56;22.56;87.57
73750;SHT30;62058;48.406;-4.514;2022-09-09T13:06:24;23.17;78.12
73750;SHT30;62058;48.406;-4.514;2022-09-09T13:08:52;23.65;85.64
73750;SHT30;62058;48.406;-4.514;2022-09-09T13:13:57;23.75;67.27
73750;SHT30;62058;48.406;-4.514;2022-09-09T13:16:29;24.03;64.93
73750;SHT30;62058;48.406;-4.514;2022-09-09T13:19:02;24.33;72.24
73750;SHT30;62058;48.406;-4.514;2022-09-09T13:21:37;24.57;68.03
73750;SHT30;62058;48.406;-4.514;2022-09-09T13:24:05;24.78;65.24
73750;SHT30;62058;48.406;-4.514;2022-09-09T13:26:33;24.78;78.88
73750;SHT30;62058;48.406;-4.514;2022-09-09T13:29:18;25.16;59.50
73750;SHT30;62058;48.406;-4.514;2022-09-09T13:31:44;25.28;62.68
73750;SHT30;62058;48.406;-4.514;2022-09-09T13:34:25;25.58;74.98
73750;SHT30;62058;48.406;-4.514;2022-09-09T13:36:56;26.26;56.09
73750;SHT30;62058;48.406;-4.514;2022-09-09T13:39:22;26.65;55.65
73750;SHT30;62058;48.406;-4.514;2022-09-09T13:41:48;26.61;55.38
73750;SHT30;62058;48.406;-4.514;2022-09-09T13:44:19;26.79;53.06
73750;SHT30;62058;48.406;-4.514;2022-09-09T13:46:45;26.47;53.55
73750;SHT30;62058;48.406;-4.514;2022-09-09T13:51:44;26.12;52.86
73750;SHT30;62058;48.406;-4.514;2022-09-09T13:54:13;26.12;51.30
73750;SHT30;62058;48.406;-4.514;2022-09-09T13:56:40;26.38;56.05
73750;SHT30;62058;48.406;-4.514;2022-09-09T13:59:18;26.81;54.00
73750;SHT30;62058;48.406;-4.514;2022-09-09T14:01:45;26.43;49.97
73750;SHT30;62058;48.406;-4.514;2022-09-09T14:04:10;26.26;51.94
73750;SHT30;62058;48.406;-4.514;2022-09-09T14:06:36;26.16;51.92
73750;SHT30;62058;48.406;-4.514;2022-09-09T14:09:04;26.69;51.92
73750;SHT30;62058;48.406;-4.514;2022-09-09T14:11:30;27.67;50.53
73750;SHT30;62058;48.406;-4.514;2022-09-09T14:13:55;27.46;49.89
73750;SHT30;62058;48.406;-4.514;2022-09-09T14:16:21;27.16;51.50
73750;SHT30;62058;48.406;-4.514;2022-09-09T14:18:47;26.49;52.89
73750;SHT30;62058;48.406;-4.514;2022-09-09T14:21:13;25.76;53.48
73750;SHT30;62058;48.406;-4.514;2022-09-09T14:23:39;25.29;55.32
73750;SHT30;62058;48.406;-4.514;2022-09-09T14:26:05;25.47;53.73
73750;SHT30;62058;48.406;-4.514;2022-09-09T14:28:31;26.04;53.21
73750;SHT30;62058;48.406;-4.514;2022-09-09T14:31:01;26.01;51.79
73750;SHT30;62058;48.406;-4.514;2022-09-09T14:33:27;26.41;51.93
73750;SHT30;62058;48.406;-4.514;2022-09-09T14:35:58;26.13;55.04
73750;SHT30;62058;48.406;-4.514;2022-09-09T14:38:24;25.58;54.04
73750;SHT30;62058;48.406;-4.514;2022-09-09T14:40:49;25.67;55.29
73750;SHT30;62058;48.406;-4.514;2022-09-09T14:43:15;25.26;55.68
73750;SHT30;62058;48.406;-4.514;2022-09-09T14:45:40;25.35;55.06
73750;SHT30;62058;48.406;-4.514;2022-09-09T14:48:06;25.05;55.98
73750;SHT30;62058;48.406;-4.514;2022-09-09T14:50:31;25.39;54.84
73750;SHT30;62058;48.406;-4.514;2022-09-09T14:52:56;25.42;54.31
73750;SHT30;62058;48.406;-4.514;2022-09-09T14:55:22;25.36;53.51
73750;SHT30;62058;48.406;-4.514;2022-09-09T14:57:47;25.61;53.88
73750;SHT30;62058;48.406;-4.514;2022-09-09T15:00:13;26.81;50.10
73750;SHT30;62058;48.406;-4.514;2022-09-09T15:02:39;26.41;50.45
73750;SHT30;62058;48.406;-4.514;2022-09-09T15:05:05;26.64;50.77
73750;SHT30;62058;48.406;-4.514;2022-09-09T15:07:30;26.27;51.94
73750;SHT30;62058;48.406;-4.514;2022-09-09T15:09:57;25.63;53.10
73750;SHT30;62058;48.406;-4.514;2022-09-09T15:12:23;25.22;53.79
73750;SHT30;62058;48.406;-4.514;2022-09-09T15:14:49;25.02;54.29
73750;SHT30;62058;48.406;-4.514;2022-09-09T15:17:16;25.35;53.90
73750;SHT30;62058;48.406;-4.514;2022-09-09T15:19:42;25.18;53.97
73750;SHT30;62058;48.406;-4.514;2022-09-09T15:22:08;25.02;54.69
73750;SHT30;62058;48.406;-4.514;2022-09-09T15:24:34;24.98;55.97
73750;SHT30;62058;48.406;-4.514;2022-09-09T15:27:00;24.75;56.55
73750;SHT30;62058;48.406;-4.514;2022-09-09T15:29:26;24.49;55.97
73750;SHT30;62058;48.406;-4.514;2022-09-09T15:31:53;24.29;57.19
73750;SHT30;62058;48.406;-4.514;2022-09-09T15:34:19;24.26;56.66
73750;SHT30;62058;48.406;-4.514;2022-09-09T15:36:45;24.37;56.75
73750;SHT30;62058;48.406;-4.514;2022-09-09T15:39:15;24.26;56.56
73750;SHT30;62058;48.406;-4.514;2022-09-09T15:41:45;24.05;57.39
73750;SHT30;62058;48.406;-4.514;2022-09-09T15:44:12;23.98;57.40
73750;SHT30;62058;48.406;-4.514;2022-09-09T15:46:43;24.02;57.68
73750;SHT30;62058;48.406;-4.514;2022-09-09T15:49:10;23.90;58.26
73750;SHT30;62058;48.406;-4.514;2022-09-09T15:51:43;23.68;58.30
73750;SHT30;62058;48.406;-4.514;2022-09-09T15:54:14;23.48;58.81
73750;SHT30;62058;48.406;-4.514;2022-09-09T15:56:42;23.25;59.58
73750;SHT30;62058;48.406;-4.514;2022-09-09T15:59:08;22.98;60.29
73750;SHT30;62058;48.406;-4.514;2022-09-09T16:01:34;23.07;60.86
73750;SHT30;62058;48.406;-4.514;2022-09-09T16:04:00;23.08;61.17
73750;SHT30;62058;48.406;-4.514;2022-09-09T16:06:27;22.98;60.68
73750;SHT30;62058;48.406;-4.514;2022-09-09T16:08:54;22.93;60.88
73750;SHT30;62058;48.406;-4.514;2022-09-09T16:11:28;22.91;61.27
73750;SHT30;62058;48.406;-4.514;2022-09-09T16:13:55;23.04;61.47
73750;SHT30;62058;48.406;-4.514;2022-09-09T16:16:23;23.29;60.49
73750;SHT30;62058;48.406;-4.514;2022-09-09T16:18:54;23.89;59.33
73750;SHT30;62058;48.406;-4.514;2022-09-09T16:21:22;24.77;56.51
73750;SHT30;62058;48.406;-4.514;2022-09-09T16:23:50;24.84;56.44
73750;SHT30;62058;48.406;-4.514;2022-09-09T16:26:17;24.65;55.18
73750;SHT30;62058;48.406;-4.514;2022-09-09T16:28:43;25.70;53.25
73750;SHT30;62058;48.406;-4.514;2022-09-09T16:31:11;27.52;49.13
73750;SHT30;62058;48.406;-4.514;2022-09-09T16:33:39;27.39;48.63
73750;SHT30;62058;48.406;-4.514;2022-09-09T16:36:09;26.36;51.06
73750;SHT30;62058;48.406;-4.514;2022-09-09T16:38:36;26.03;52.33
73750;SHT30;62058;48.406;-4.514;2022-09-09T16:41:03;26.04;52.15
73750;SHT30;62058;48.406;-4.514;2022-09-09T16:43:30;26.31;51.17
73750;SHT30;62058;48.406;-4.514;2022-09-09T16:45:55;27.26;49.67
73750;SHT30;62058;48.406;-4.514;2022-09-09T16:48:21;27.13;50.48
73750;SHT30;62058;48.406;-4.514;2022-09-09T16:50:46;27.81;48.38
73750;SHT30;62058;48.406;-4.514;2022-09-09T16:53:12;26.89;51.13
73750;SHT30;62058;48.406;-4.514;2022-09-09T16:55:40;26.04;52.59
73750;SHT30;62058;48.406;-4.514;2022-09-09T16:58:07;26.12;53.40
73750;SHT30;62058;48.406;-4.514;2022-09-09T17:00:34;27.13;51.40
73750;SHT30;62058;48.406;-4.514;2022-09-09T17:03:00;28.00;48.64
73750;SHT30;62058;48.406;-4.514;2022-09-09T17:05:25;29.53;46.15
73750;SHT30;62058;48.406;-4.514;2022-09-09T17:07:50;31.06;42.68
73750;SHT30;62058;48.406;-4.514;2022-09-09T17:10:16;32.25;39.81
73750;SHT30;62058;48.406;-4.514;2022-09-09T17:12:42;32.04;40.13
73750;SHT30;62058;48.406;-4.514;2022-09-09T17:15:08;32.28;38.75
73750;SHT30;62058;48.406;-4.514;2022-09-09T17:17:34;32.25;38.64
73750;SHT30;62058;48.406;-4.514;2022-09-09T17:20:00;30.38;40.36
73750;SHT30;62058;48.406;-4.514;2022-09-09T17:22:27;28.75;44.56
73750;SHT30;62058;48.406;-4.514;2022-09-09T17:24:53;28.66;44.93
73750;SHT30;62058;48.406;-4.514;2022-09-09T17:27:20;29.29;43.97
73750;SHT30;62058;48.406;-4.514;2022-09-09T17:29:45;29.87;41.70